Time;durP1;ratioP1;P1;durP2;ratioP2;P2;SDS_P1;SDS_P2;PMS_P1;PMS_P2;Temp;Humidity;BMP_temperature;BMP_pressure;BME280_temperature;BME280_humidity;BME280_pressure;Samples;Min_cycle;Max_cycle;Signal;HPM_P1;HPM_P2
2021/05/01 00:02:17;;;;;;;13.27;9.85;;;;;;;16.64;31.74;101721.38;5031907;28;20049;-81
2021/05/01 00:04:42;;;;;;;10.77;9.73;;;;;;;16.64;31.70;101722.19;5032335;28;20105;-81
2021/05/01 00:07:08;;;;;;;11.73;10.52;;;;;;;16.51;32.03;101720.44;5033734;28;20052;-84
2021/05/01 00:09:34;;;;;;;12.05;9.25;;;;;;;16.54;31.97;101722.50;5033667;28;20057;-81
2021/05/01 00:11:59;;;;;;;13.10;10.95;;;;;;;16.52;31.92;101724.81;5032222;28;20029;-81
2021/05/01 00:14:26;;;;;;;12.25;10.23;;;;;;;16.46;31.86;101723.34;5033506;28;20084;-83
2021/05/01 00:16:55;;;;;;;12.50;10.45;;;;;;;16.43;32.01;101724.03;5032162;28;20035;-84
2021/05/01 00:19:21;;;;;;;16.50;10.43;;;;;;;16.42;31.79;101719.66;5033599;28;20034;-82
2021/05/01 00:21:48;;;;;;;12.80;9.45;;;;;;;16.41;31.95;101723.56;5033493;28;20034;-81
2021/05/01 00:24:13;;;;;;;10.90;9.23;;;;;;;16.39;32.10;101720.28;5015568;28;20061;-84
2021/05/01 00:26:41;;;;;;;10.73;9.25;;;;;;;16.35;32.12;101722.91;5033349;28;20072;-81
2021/05/01 00:29:06;;;;;;;12.45;9.77;;;;;;;16.35;32.08;101722.09;5033214;28;20029;-82
2021/05/01 00:31:34;;;;;;;11.60;8.77;;;;;;;16.32;32.18;101717.22;5031922;28;20049;-81
2021/05/01 00:34:00;;;;;;;11.10;8.85;;;;;;;16.30;32.14;101716.75;5031751;28;20451;-82
2021/05/01 00:36:26;;;;;;;14.13;9.55;;;;;;;16.27;32.22;101717.41;5033155;28;20056;-83
2021/05/01 00:38:51;;;;;;;12.40;9.32;;;;;;;16.24;32.36;101721.63;5032965;28;20033;-81
2021/05/01 00:41:17;;;;;;;12.13;8.98;;;;;;;16.16;32.09;101716.13;5031810;28;20442;-81
2021/05/01 00:43:42;;;;;;;9.65;8.63;;;;;;;16.07;32.36;101713.38;5031662;28;20030;-81
2021/05/01 00:46:09;;;;;;;10.95;9.25;;;;;;;16.04;32.43;101714.84;5031525;28;20399;-81
2021/05/01 00:48:35;;;;;;;11.20;9.20;;;;;;;16.00;32.53;101708.34;5031670;28;20034;-81
2021/05/01 00:51:01;;;;;;;11.52;9.32;;;;;;;15.99;32.35;101708.69;5031482;28;20172;-81
2021/05/01 00:53:27;;;;;;;12.38;9.25;;;;;;;15.93;32.72;101702.53;5031552;28;20446;-81
2021/05/01 00:55:53;;;;;;;12.52;9.27;;;;;;;15.93;32.75;101708.03;5033051;28;20041;-85
2021/05/01 00:58:20;;;;;;;12.25;10.80;;;;;;;15.95;32.55;101705.78;5031447;28;20115;-84
2021/05/01 01:03:17;;;;;;;16.20;10.43;;;;;;;15.90;32.39;101700.44;5032712;28;20021;-84
2021/05/01 01:05:44;;;;;;;12.43;9.68;;;;;;;15.87;32.65;101703.84;5031424;28;20021;-83
2021/05/01 01:08:09;;;;;;;13.82;9.25;;;;;;;15.89;32.50;101706.28;5031393;28;20079;-81
2021/05/01 01:10:35;;;;;;;13.98;10.07;;;;;;;15.86;32.68;101702.22;5032668;28;20063;-81
2021/05/01 01:13:00;;;;;;;12.43;9.73;;;;;;;15.80;32.92;101703.53;5030792;28;20029;-81
2021/05/01 01:15:28;;;;;;;11.45;9.68;;;;;;;15.81;32.64;101700.44;5030961;28;20037;-84
2021/05/01 01:17:54;;;;;;;14.75;10.18;;;;;;;15.74;32.79;101699.31;5031297;28;20040;-81
2021/05/01 01:20:20;;;;;;;12.90;10.85;;;;;;;15.66;32.95;101706.44;5031386;28;20487;-81
2021/05/01 01:22:46;;;;;;;14.52;10.57;;;;;;;15.68;33.08;101703.34;5031346;28;20460;-81
2021/05/01 01:25:12;;;;;;;12.63;10.15;;;;;;;15.69;32.87;101700.28;5014996;28;20116;-81
2021/05/01 01:27:38;;;;;;;11.30;9.25;;;;;;;15.66;32.90;101700.94;5031192;28;20025;-81
2021/05/01 01:30:07;;;;;;;12.98;9.70;;;;;;;15.64;32.70;101700.47;5031101;28;20041;-82
2021/05/01 01:32:33;;;;;;;14.65;9.52;;;;;;;15.61;32.74;101698.34;5047639;28;20064;-81
2021/05/01 01:34:58;;;;;;;13.50;10.05;;;;;;;15.56;32.93;101692.94;5031272;28;20029;-81
2021/05/01 01:37:24;;;;;;;13.40;9.93;;;;;;;15.56;33.11;101703.97;5032378;28;20029;-81
2021/05/01 01:39:49;;;;;;;13.00;9.80;;;;;;;15.54;33.03;101698.78;5031052;28;20035;-81
2021/05/01 01:42:15;;;;;;;12.07;10.05;;;;;;;15.31;33.40;101697.31;5031169;28;20391;-82
2021/05/01 01:44:41;;;;;;;12.48;9.85;;;;;;;15.17;33.83;101700.19;5032213;28;20468;-81
2021/05/01 01:47:06;;;;;;;12.90;9.82;;;;;;;15.09;33.84;101702.91;5032249;28;20079;-81
2021/05/01 01:49:38;;;;;;;12.25;9.02;;;;;;;15.08;33.86;101706.81;5032120;28;20107;-83
2021/05/01 01:52:04;;;;;;;15.25;10.20;;;;;;;14.98;34.13;101694.97;5032187;28;20064;-81
2021/05/01 01:54:29;;;;;;;12.27;10.35;;;;;;;15.01;33.94;101701.75;5030281;28;20034;-81
2021/05/01 01:56:58;;;;;;;14.93;9.25;;;;;;;14.89;34.11;101696.88;5030882;28;20026;-84
2021/05/01 01:59:24;;;;;;;13.10;10.20;;;;;;;14.93;33.99;101702.56;5032432;28;20112;-82
2021/05/01 02:01:50;;;;;;;11.57;9.73;;;;;;;14.84;34.08;101699.78;5030953;28;20294;-81
2021/05/01 02:04:15;;;;;;;15.30;10.73;;;;;;;14.80;34.20;101700.72;5030846;28;20033;-80
2021/05/01 02:06:42;;;;;;;13.98;10.65;;;;;;;14.81;34.20;101697.69;5032313;28;20032;-81
2021/05/01 02:09:07;;;;;;;12.05;10.38;;;;;;;14.70;34.23;101701.81;5031261;28;20079;-81
2021/05/01 02:11:33;;;;;;;12.77;9.30;;;;;;;14.63;34.30;101695.97;5031044;28;20034;-85
2021/05/01 02:13:58;;;;;;;11.43;10.23;;;;;;;14.66;34.13;101693.41;5030925;28;20030;-81
2021/05/01 02:16:24;;;;;;;11.48;9.77;;;;;;;14.64;34.26;101694.84;5032453;28;20028;-86
2021/05/01 02:18:50;;;;;;;13.10;11.55;;;;;;;14.58;34.35;101696.91;5028152;28;20045;-85
2021/05/01 02:21:15;;;;;;;13.85;10.32;;;;;;;14.56;34.41;101693.66;5032319;28;20198;-81
2021/05/01 02:23:41;;;;;;;11.27;10.02;;;;;;;14.54;34.28;101693.19;5032090;28;20054;-86
2021/05/01 02:26:06;;;;;;;12.95;9.90;;;;;;;14.52;34.26;101698.19;5033368;28;20025;-82
2021/05/01 02:28:32;;;;;;;18.10;11.15;;;;;;;14.54;34.17;101689.63;5033229;28;20033;-81
2021/05/01 02:30:57;;;;;;;11.02;9.93;;;;;;;14.47;34.30;101692.81;5033506;28;20055;-82
2021/05/01 02:33:23;;;;;;;12.98;9.82;;;;;;;14.48;34.49;101691.69;5034187;28;20025;-81
2021/05/01 02:35:48;;;;;;;12.77;10.23;;;;;;;14.47;34.51;101689.25;5035298;28;20037;-85
2021/05/01 02:38:14;;;;;;;13.27;10.23;;;;;;;14.47;34.42;101687.31;5034244;28;20500;-81
2021/05/01 02:40:40;;;;;;;13.57;9.63;;;;;;;14.47;34.48;101694.75;5035792;28;20128;-81
2021/05/01 02:43:08;;;;;;;13.65;11.05;;;;;;;14.41;34.53;101689.34;5035245;28;20387;-81
2021/05/01 02:45:34;;;;;;;14.02;11.13;;;;;;;14.43;34.43;101689.88;5034022;28;20440;-81
2021/05/01 02:48:00;;;;;;;13.25;10.48;;;;;;;14.37;34.61;101687.56;5035108;28;20053;-81
2021/05/01 02:50:26;;;;;;;14.52;11.18;;;;;;;14.37;34.60;101685.63;5033973;28;20049;-81
2021/05/01 02:52:52;;;;;;;14.15;11.90;;;;;;;14.35;34.41;101687.06;5017604;28;20387;-81
2021/05/01 02:55:18;;;;;;;12.88;10.60;;;;;;;14.34;34.55;101686.25;5034133;28;20447;-81
2021/05/01 02:57:44;;;;;;;12.68;11.00;;;;;;;14.28;34.47;101687.53;5033660;28;20112;-81
2021/05/01 03:00:15;;;;;;;15.80;10.57;;;;;;;14.29;34.52;101693.84;5035114;28;20064;-81
2021/05/01 03:02:42;;;;;;;14.63;10.13;;;;;;;14.26;34.52;101684.25;5034987;28;20021;-81
2021/05/01 03:05:08;;;;;;;13.75;10.30;;;;;;;14.28;34.87;101689.44;5033660;28;20384;-80
2021/05/01 03:07:35;;;;;;;12.27;9.65;;;;;;;14.24;34.56;101688.47;5033650;28;20044;-81
2021/05/01 03:10:08;;;;;;;17.15;10.73;;;;;;;14.23;34.71;101686.84;5034773;28;20029;-85
2021/05/01 03:12:34;;;;;;;14.00;10.70;;;;;;;14.21;34.49;101676.16;5033704;28;20121;-81
2021/05/01 03:14:59;;;;;;;14.52;10.60;;;;;;;14.51;33.94;101684.72;5034638;28;20100;-80
2021/05/01 03:17:25;;;;;;;15.45;10.75;;;;;;;14.54;33.90;101678.63;5033608;28;20029;-86
2021/05/01 03:19:51;;;;;;;13.43;10.65;;;;;;;14.55;33.74;101680.25;5034593;28;20021;-80
2021/05/01 03:22:17;;;;;;;12.20;9.70;;;;;;;14.53;33.89;101677.00;5033593;28;20030;-81
2021/05/01 03:24:42;;;;;;;16.73;10.60;;;;;;;14.52;33.92;101676.19;5033504;28;20017;-84
2021/05/01 03:27:08;;;;;;;17.15;11.52;;;;;;;14.45;34.06;101673.06;5033260;28;20045;-81
2021/05/01 03:29:34;;;;;;;15.15;10.02;;;;;;;14.43;33.83;101678.03;5034465;28;20112;-81
2021/05/01 03:32:00;;;;;;;13.55;10.15;;;;;;;14.38;34.28;101673.50;5033158;28;20017;-81
2021/05/01 03:34:26;;;;;;;10.98;9.52;;;;;;;14.33;33.84;101667.31;5034285;28;20040;-81
2021/05/01 03:36:52;;;;;;;13.30;10.25;;;;;;;14.29;33.97;101667.16;5032051;28;20056;-86
2021/05/01 03:39:18;;;;;;;13.82;9.90;;;;;;;14.28;34.05;101668.28;5033004;28;20028;-81
2021/05/01 03:41:44;;;;;;;12.57;10.77;;;;;;;14.30;33.80;101677.03;5032931;28;20025;-81
2021/05/01 03:44:10;;;;;;;12.95;10.02;;;;;;;14.31;33.77;101672.34;5032930;28;20079;-85
2021/05/01 03:46:35;;;;;;;12.90;10.75;;;;;;;14.21;34.05;101670.66;5034160;28;20025;-86
2021/05/01 03:49:01;;;;;;;12.77;10.30;;;;;;;14.18;33.94;101671.28;5034407;28;20025;-85
2021/05/01 03:51:27;;;;;;;11.05;9.75;;;;;;;14.25;33.71;101670.84;5034055;28;20187;-85
2021/05/01 03:53:52;;;;;;;12.23;9.98;;;;;;;14.15;33.89;101669.97;5032893;28;20028;-81
2021/05/01 03:56:18;;;;;;;14.73;10.95;;;;;;;14.09;33.88;101664.94;5034069;28;20025;-81
2021/05/01 03:58:44;;;;;;;11.50;9.63;;;;;;;14.07;33.94;101664.44;5032562;28;20036;-81
2021/05/01 04:01:09;;;;;;;14.75;11.68;;;;;;;14.00;34.39;101664.88;5033789;28;20029;-82
2021/05/01 04:03:35;;;;;;;15.20;11.30;;;;;;;14.02;34.07;101659.06;5032486;28;20382;-82
2021/05/01 04:06:00;;;;;;;15.02;10.35;;;;;;;14.02;33.93;101667.31;5033756;28;20092;-80
2021/05/01 04:08:26;;;;;;;13.95;10.75;;;;;;;14.01;33.86;101662.94;5032502;28;20114;-80
2021/05/01 04:10:52;;;;;;;14.35;11.40;;;;;;;13.96;34.10;101666.63;5032641;28;20567;-81
2021/05/01 04:13:18;;;;;;;16.73;11.65;;;;;;;13.79;34.32;101664.56;5032311;28;20109;-81
2021/05/01 04:15:44;;;;;;;16.60;12.25;;;;;;;13.95;34.10;101661.44;5033559;28;20107;-81
2021/05/01 04:18:13;;;;;;;17.02;11.23;;;;;;;13.92;34.35;101664.81;5033475;28;20066;-83
2021/05/01 04:20:40;;;;;;;14.82;11.52;;;;;;;13.94;34.13;101657.88;5033606;28;20022;-85
2021/05/01 04:23:06;;;;;;;13.73;11.70;;;;;;;13.89;34.20;101658.00;5033578;28;20036;-81
2021/05/01 04:25:31;;;;;;;12.45;11.05;;;;;;;13.88;34.40;101659.13;5032200;28;20119;-81
2021/05/01 04:27:57;;;;;;;13.30;10.95;;;;;;;13.91;34.29;101655.78;5032137;28;20418;-81
2021/05/01 04:30:23;;;;;;;13.45;11.55;;;;;;;13.89;34.20;101661.56;5033413;28;20032;-81
2021/05/01 04:32:50;;;;;;;12.55;10.43;;;;;;;13.89;34.30;101661.56;5015540;28;20029;-81
2021/05/01 04:35:15;;;;;;;14.65;11.05;;;;;;;13.89;34.38;101663.50;5031810;28;20138;-82
2021/05/01 04:37:41;;;;;;;16.17;12.25;;;;;;;13.89;34.13;101661.56;5033152;28;20116;-81
2021/05/01 04:40:07;;;;;;;15.27;12.48;;;;;;;13.83;34.21;101657.34;5033034;28;20030;-82
2021/05/01 04:42:35;;;;;;;13.75;11.48;;;;;;;13.83;34.45;101664.78;5031970;28;20029;-81
2021/05/01 04:45:01;;;;;;;15.02;12.07;;;;;;;13.77;34.20;101655.84;5033091;28;20426;-85
2021/05/01 04:47:27;;;;;;;15.50;11.73;;;;;;;13.77;34.39;101660.53;5031470;28;20132;-81
2021/05/01 04:49:52;;;;;;;17.08;12.70;;;;;;;13.73;34.62;101662.25;5032908;28;20025;-81
2021/05/01 04:52:18;;;;;;;16.95;12.18;;;;;;;13.75;34.43;101660.84;5031704;28;20026;-81
2021/05/01 04:54:43;;;;;;;12.82;11.07;;;;;;;13.73;34.41;101656.75;5032522;28;20068;-81
2021/05/01 04:57:09;;;;;;;14.73;11.30;;;;;;;13.77;34.43;101655.84;5032756;28;20029;-81
2021/05/01 04:59:34;;;;;;;13.13;11.82;;;;;;;13.78;34.34;101662.13;5032806;28;20025;-81
2021/05/01 05:02:00;;;;;;;14.18;12.00;;;;;;;13.75;34.48;101668.25;5031547;28;20028;-81
2021/05/01 05:04:26;;;;;;;13.75;12.20;;;;;;;13.78;34.50;101668.44;5031436;28;20068;-81
2021/05/01 05:06:51;;;;;;;15.88;12.18;;;;;;;13.77;34.50;101661.31;5032774;28;20025;-82
2021/05/01 05:09:17;;;;;;;21.35;12.52;;;;;;;13.78;34.50;101667.63;5031478;28;20026;-81
2021/05/01 05:11:43;;;;;;;20.63;11.88;;;;;;;13.79;34.35;101669.25;5032759;28;20060;-81
2021/05/01 05:14:08;;;;;;;18.45;12.75;;;;;;;13.80;34.53;101665.38;5032670;28;20025;-81
2021/05/01 05:16:34;;;;;;;15.00;12.43;;;;;;;13.81;34.59;101669.75;5032669;28;20026;-80
2021/05/01 05:18:59;;;;;;;16.02;11.98;;;;;;;13.64;34.91;101667.69;5032596;28;20465;-80
2021/05/01 05:21:25;;;;;;;15.77;11.05;;;;;;;13.71;34.60;101679.06;5032787;28;20025;-80
2021/05/01 05:23:51;;;;;;;15.45;11.98;;;;;;;13.77;34.55;101675.06;5032623;28;20104;-80
2021/05/01 05:26:17;;;;;;;20.60;12.88;;;;;;;13.81;34.52;101678.78;5031175;28;20021;-80
2021/05/01 05:28:42;;;;;;;13.93;11.52;;;;;;;13.87;34.38;101683.03;5031173;28;20053;-80
2021/05/01 05:31:08;;;;;;;21.73;13.25;;;;;;;13.94;34.49;101684.53;5032375;28;20045;-79
2021/05/01 05:33:33;;;;;;;15.45;12.82;;;;;;;14.15;34.32;101683.72;5031144;28;20080;-80
2021/05/01 05:35:59;;;;;;;17.50;11.95;;;;;;;14.37;33.90;101684.81;5032387;28;20025;-83
2021/05/01 05:38:25;;;;;;;16.27;11.05;;;;;;;14.54;34.02;101686.88;5031099;28;20108;-82
2021/05/01 05:40:51;;;;;;;16.85;11.32;;;;;;;14.68;33.84;101688.38;5032390;28;20041;-81
2021/05/01 05:43:17;;;;;;;16.23;12.00;;;;;;;14.76;33.94;101691.50;5032150;28;20480;-81
2021/05/01 05:45:45;;;;;;;13.35;10.73;;;;;;;14.79;33.95;101693.59;5032276;28;20025;-81
2021/05/01 05:48:11;;;;;;;21.92;12.60;;;;;;;14.82;33.85;101691.03;5031083;28;20028;-80
2021/05/01 05:50:36;;;;;;;15.25;10.55;;;;;;;14.79;34.00;101694.41;5030948;28;20041;-84
2021/05/01 05:53:02;;;;;;;14.75;11.40;;;;;;;14.87;34.10;101692.81;5031236;28;20021;-84
2021/05/01 05:55:28;;;;;;;22.77;11.98;;;;;;;14.79;34.21;101701.84;5022378;28;20033;-82
2021/05/01 05:57:55;;;;;;;13.63;11.15;;;;;;;14.95;33.98;101692.84;5021557;28;20490;-83
2021/05/01 06:00:23;;;;;;;13.57;10.73;;;;;;;15.03;33.94;101695.94;5012735;28;20142;-83
2021/05/01 06:02:51;;;;;;;12.13;10.27;;;;;;;15.10;33.97;101702.59;5024285;28;20025;-85
2021/05/01 06:05:32;;;;;;;16.88;11.93;;;;;;;15.19;34.05;101702.63;4992132;28;20030;-84
2021/05/01 06:08:05;;;;;;;14.25;11.02;;;;;;;15.31;33.81;101700.06;5011889;28;20045;-82
2021/05/01 06:10:32;;;;;;;13.88;11.13;;;;;;;15.44;33.83;101701.06;5008441;28;20361;-81
2021/05/01 06:13:01;;;;;;;12.45;11.15;;;;;;;15.45;33.85;101703.47;5008873;28;20048;-81
2021/05/01 06:15:27;;;;;;;14.95;11.10;;;;;;;15.52;34.02;101703.81;5027606;28;20100;-81
2021/05/01 06:18:01;;;;;;;16.05;12.00;;;;;;;15.65;33.76;101709.53;5023247;28;20164;-81
2021/05/01 06:20:28;;;;;;;13.50;10.25;;;;;;;15.81;33.61;101699.63;5026681;28;20026;-82
2021/05/01 06:22:54;;;;;;;17.77;10.27;;;;;;;15.75;33.99;101698.19;5022796;28;20069;-82
2021/05/01 06:25:24;;;;;;;14.20;10.63;;;;;;;15.74;33.85;101711.16;5025088;28;20045;-82
2021/05/01 06:27:53;;;;;;;10.93;9.82;;;;;;;15.78;34.15;101703.03;5024259;28;20030;-83
2021/05/01 06:30:21;;;;;;;16.40;9.88;;;;;;;15.87;33.92;101698.34;5022782;28;20029;-80
2021/05/01 06:32:47;;;;;;;16.25;10.48;;;;;;;15.99;33.80;101706.75;5022496;28;20029;-82
2021/05/01 06:35:14;;;;;;;12.95;8.93;;;;;;;16.03;33.92;101709.66;5024574;28;20021;-82
2021/05/01 06:37:40;;;;;;;13.52;10.80;;;;;;;16.20;33.70;101709.63;5025161;28;20033;-83
2021/05/01 06:40:11;;;;;;;15.52;9.88;;;;;;;16.25;33.66;101719.69;5005900;28;20030;-86
2021/05/01 06:42:49;;;;;;;18.95;10.13;;;;;;;16.09;33.96;101717.41;5005732;28;20507;-81
2021/05/01 06:45:16;;;;;;;13.10;8.75;;;;;;;16.11;33.84;101719.06;5024990;28;20045;-83
2021/05/01 06:48:03;;;;;;;11.68;8.82;;;;;;;16.22;33.80;101715.63;5045794;28;20136;-81
2021/05/01 06:50:30;;;;;;;12.25;9.40;;;;;;;16.25;33.84;101714.19;5027224;28;20041;-81
2021/05/01 06:52:57;;;;;;;15.50;10.05;;;;;;;16.31;33.69;101719.16;5022961;28;20021;-83
2021/05/01 06:55:26;;;;;;;12.48;9.02;;;;;;;16.28;33.71;101721.78;5027705;28;20372;-85
2021/05/01 06:57:53;;;;;;;14.63;10.57;;;;;;;16.48;33.29;101723.84;5019708;28;20113;-84
2021/05/01 07:00:21;;;;;;;12.40;9.65;;;;;;;16.47;33.54;101721.41;5053553;28;20033;-87
2021/05/01 07:02:50;;;;;;;11.35;9.35;;;;;;;16.51;33.51;101728.69;5025939;28;20014;-84
2021/05/01 07:05:17;;;;;;;12.30;9.80;;;;;;;16.63;33.58;101726.06;5023110;28;20080;-86
2021/05/01 07:07:44;;;;;;;16.90;10.02;;;;;;;16.62;33.66;101729.13;5026078;28;20021;-89
2021/05/01 07:10:11;;;;;;;16.25;9.65;;;;;;;16.78;33.80;101726.72;5023984;28;20021;-88
2021/05/01 07:12:37;;;;;;;17.10;10.13;;;;;;;16.87;33.83;101724.72;5024464;28;20029;-90
2021/05/01 07:15:05;;;;;;;16.00;9.98;;;;;;;17.01;33.67;101725.31;5024575;28;20472;-92
2021/05/01 07:17:31;;;;;;;11.95;9.57;;;;;;;17.14;33.69;101729.75;5021590;28;20028;-94
2021/05/01 07:20:00;;;;;;;13.38;9.73;;;;;;;16.94;33.79;101727.75;5026644;28;20033;-85
2021/05/01 07:22:26;;;;;;;10.57;9.02;;;;;;;17.13;33.48;101735.63;5018870;28;20051;-85
2021/05/01 07:24:53;;;;;;;11.07;9.45;;;;;;;17.33;33.28;101732.09;5023232;28;20020;-88
2021/05/01 07:27:20;;;;;;;16.58;9.43;;;;;;;17.55;33.30;101717.16;5023863;28;20070;-86
2021/05/01 07:29:49;;;;;;;13.98;9.73;;;;;;;17.58;33.50;101729.47;5021854;28;20087;-87
2021/05/01 07:32:18;;;;;;;15.75;10.52;;;;;;;17.73;33.37;101728.91;5022250;28;20026;-85
2021/05/01 07:34:50;;;;;;;16.63;9.57;;;;;;;17.82;33.38;101728.84;5025351;28;20018;-86
2021/05/01 07:37:19;;;;;;;11.88;9.30;;;;;;;17.71;33.59;101731.22;5024535;28;20447;-83
2021/05/01 07:39:51;;;;;;;15.05;9.02;;;;;;;17.75;33.41;101729.38;5019023;28;20037;-89
2021/05/01 07:42:23;;;;;;;13.80;9.48;;;;;;;17.83;33.25;101727.69;5022408;28;20052;-86
2021/05/01 07:44:56;;;;;;;17.33;9.30;;;;;;;17.96;32.87;101730.16;5023469;28;20607;-84
2021/05/01 07:47:23;;;;;;;11.52;8.90;;;;;;;18.06;33.01;101740.03;5053583;28;20030;-84
2021/05/01 07:49:51;;;;;;;14.18;8.80;;;;;;;18.11;32.97;101742.56;5023510;28;20049;-80
2021/05/01 07:52:18;;;;;;;13.00;8.43;;;;;;;18.22;32.90;101735.47;5020845;28;20483;-81
2021/05/01 07:54:44;;;;;;;10.90;8.38;;;;;;;18.40;32.67;101736.09;5023042;28;20108;-81
2021/05/01 07:57:10;;;;;;;11.38;7.90;;;;;;;18.53;32.72;101737.75;5018546;28;20034;-81
2021/05/01 07:59:36;;;;;;;30.70;11.43;;;;;;;18.60;32.65;101739.16;5013642;28;20048;-79
2021/05/01 08:02:05;;;;;;;20.58;9.80;;;;;;;18.78;32.51;101735.03;5013712;28;20025;-77
2021/05/01 08:04:32;;;;;;;10.13;8.02;;;;;;;18.98;32.50;101736.09;5032661;28;20021;-81
2021/05/01 08:06:58;;;;;;;10.27;7.85;;;;;;;19.17;32.49;101728.00;5024375;28;20527;-82
2021/05/01 08:09:23;;;;;;;12.20;8.50;;;;;;;19.27;32.49;101732.25;5024401;28;20033;-81
2021/05/01 08:11:49;;;;;;;14.60;8.50;;;;;;;19.34;32.06;101727.75;5028573;28;20356;-81
2021/05/01 08:14:14;;;;;;;12.63;7.60;;;;;;;19.52;31.92;101733.03;5030245;28;20478;-81
2021/05/01 08:16:40;;;;;;;11.82;7.95;;;;;;;19.45;32.06;101741.13;5028607;28;20033;-81
2021/05/01 08:19:06;;;;;;;23.48;8.93;;;;;;;19.49;32.03;101740.06;5020868;28;20045;-84
2021/05/01 08:21:35;;;;;;;14.48;7.22;;;;;;;19.75;31.31;101739.72;5017799;28;20041;-82
2021/05/01 08:24:01;;;;;;;14.25;7.18;;;;;;;19.94;31.39;101731.53;5016307;28;20040;-81
2021/05/01 08:26:27;;;;;;;13.13;7.15;;;;;;;20.12;31.01;101739.59;5019278;28;20026;-81
2021/05/01 08:28:53;;;;;;;11.05;6.45;;;;;;;20.21;30.43;101737.44;5014961;28;20129;-80
2021/05/01 08:31:18;;;;;;;9.98;5.95;;;;;;;20.45;30.13;101726.25;5018054;28;20026;-79
2021/05/01 08:33:44;;;;;;;6.25;2.70;;;;;;;20.50;29.56;101725.19;5013503;28;20045;-79
2021/05/01 08:36:09;;;;;;;8.80;3.47;;;;;;;20.44;28.98;101735.72;5032182;28;20028;-82
2021/05/01 08:38:38;;;;;;;6.53;2.40;;;;;;;20.66;28.12;101727.97;5013452;28;20040;-82
2021/05/01 08:41:05;;;;;;;6.28;2.28;;;;;;;20.91;27.20;101732.16;5018556;28;20036;-82
2021/05/01 08:43:32;;;;;;;8.52;3.03;;;;;;;20.81;27.50;101735.50;5018432;28;20176;-79
2021/05/01 08:45:59;;;;;;;6.72;3.72;;;;;;;20.90;27.40;101729.75;5016434;28;20033;-84
2021/05/01 08:48:26;;;;;;;7.40;3.67;;;;;;;21.16;27.17;101741.13;5017409;28;20128;-81
2021/05/01 08:51:00;;;;;;;9.35;3.15;;;;;;;21.13;27.14;101732.69;5016678;28;20085;-77
2021/05/01 08:53:26;;;;;;;8.52;3.40;;;;;;;21.24;27.50;101739.31;5028192;28;20056;-90
2021/05/01 08:55:52;;;;;;;17.90;4.18;;;;;;;21.21;27.10;101737.25;5020663;28;20527;-91
2021/05/01 08:58:18;;;;;;;5.10;2.60;;;;;;;21.28;26.90;101735.47;5027324;28;20034;-90
2021/05/01 09:00:47;;;;;;;7.60;3.55;;;;;;;21.39;26.85;101737.69;5026357;28;20021;-77
2021/05/01 09:03:14;;;;;;;7.57;3.00;;;;;;;21.33;27.13;101731.59;5017973;28;20477;-84
2021/05/01 09:05:41;;;;;;;10.02;3.70;;;;;;;21.45;26.71;101730.66;5026594;28;20029;-90
2021/05/01 09:08:09;;;;;;;7.20;2.58;;;;;;;21.60;27.00;101727.03;5034852;28;20478;-87
2021/05/01 09:10:46;;;;;;;11.88;4.00;;;;;;;21.34;26.76;101730.44;5051770;28;20052;-86
2021/05/01 09:13:32;;;;;;;6.18;3.45;;;;;;;21.58;26.83;101732.16;5052554;28;20479;-83
2021/05/01 09:16:06;;;;;;;5.65;3.33;;;;;;;21.63;26.58;101729.09;5051709;28;20143;-83
2021/05/01 09:18:56;;;;;;;5.55;3.05;;;;;;;21.68;26.59;101727.97;5053399;28;20112;-86
2021/05/01 09:21:24;;;;;;;6.32;2.58;;;;;;;21.70;26.67;101729.25;5052067;28;20032;-88
2021/05/01 09:23:50;;;;;;;6.90;2.35;;;;;;;21.74;26.58;101738.47;5052322;28;20119;-83
2021/05/01 09:26:22;;;;;;;5.20;3.08;;;;;;;21.99;26.23;101733.44;5052446;28;20067;-84
2021/05/01 09:28:50;;;;;;;9.05;3.38;;;;;;;21.77;26.34;101728.59;5051727;28;20043;-85
2021/05/01 09:31:17;;;;;;;4.32;2.70;;;;;;;21.99;26.14;101727.88;5051282;28;20163;-84
2021/05/01 09:33:54;;;;;;;7.10;3.42;;;;;;;22.05;26.44;101731.13;5051178;28;20115;-84
2021/05/01 09:36:23;;;;;;;3.38;2.40;;;;;;;22.17;26.26;101739.38;5054764;28;20031;-84
2021/05/01 09:38:51;;;;;;;4.70;2.58;;;;;;;22.32;26.23;101729.31;5055403;28;20040;-84
2021/05/01 09:41:18;;;;;;;10.77;3.65;;;;;;;22.33;26.51;101737.28;5056766;28;20118;-85
2021/05/01 09:44:06;;;;;;;7.05;3.90;;;;;;;22.29;26.12;101730.88;5055647;28;20056;-84
2021/05/01 09:46:43;;;;;;;6.93;3.10;;;;;;;22.35;26.26;101737.72;5054753;28;20028;-85
2021/05/01 09:49:16;;;;;;;20.70;5.93;;;;;;;22.41;26.17;101738.22;5054480;28;20025;-84
2021/05/01 09:51:44;;;;;;;7.07;2.22;;;;;;;22.52;26.13;101732.84;5054080;28;20061;-84
2021/05/01 09:54:11;;;;;;;12.88;3.88;;;;;;;22.55;26.00;101730.13;5054749;28;20029;-84
2021/05/01 09:56:42;;;;;;;19.80;4.43;;;;;;;22.45;25.77;101733.53;5053434;28;20387;-84
2021/05/01 09:59:09;;;;;;;10.48;2.85;;;;;;;22.56;25.74;101731.75;5053246;28;20136;-85
2021/05/01 10:01:35;;;;;;;6.15;2.25;;;;;;;22.55;25.63;101737.69;5053260;28;20520;-84
2021/05/01 10:04:20;;;;;;;44.53;16.73;;;;;;;22.49;26.54;101739.97;5053813;28;20021;-84
2021/05/01 10:06:49;;;;;;;13.88;3.88;;;;;;;22.88;26.23;101739.88;5055026;28;20079;-84
2021/05/01 10:09:29;;;;;;;10.52;3.83;;;;;;;22.67;25.78;101743.88;5054927;28;20074;-84
2021/05/01 10:12:03;;;;;;;;;;;;;;;22.92;25.82;101740.75;5053993;28;20025;-85
2021/05/01 10:14:46;;;;;;;6.03;2.75;;;;;;;22.77;25.92;101744.44;5070524;28;20260;-85
2021/05/01 10:17:15;;;;;;;9.88;3.28;;;;;;;22.59;26.00;101744.91;5053751;28;20025;-84
2021/05/01 10:20:04;;;;;;;5.30;2.77;;;;;;;22.67;26.13;101745.84;5053540;28;20471;-85
2021/05/01 10:22:35;;;;;;;10.38;3.85;;;;;;;22.74;26.05;101739.59;5053520;28;20112;-83
2021/05/01 10:25:08;;;;;;;11.48;3.10;;;;;;;22.97;26.05;101744.03;5053482;28;20029;-85
2021/05/01 10:27:59;;;;;;;5.30;2.60;;;;;;;23.02;25.66;101742.88;5054660;28;20021;-84
2021/05/01 10:30:36;;;;;;;25.92;4.68;;;;;;;23.17;25.50;101732.75;5053334;28;20033;-85
2021/05/01 10:35:49;;;;;;;5.82;2.38;;;;;;;23.16;24.54;101734.75;5055035;28;20058;-84
2021/05/01 10:38:17;;;;;;;7.28;2.72;;;;;;;23.26;24.65;101711.78;5053242;28;20037;-85
2021/05/01 10:40:46;;;;;;;6.55;2.28;;;;;;;23.49;24.57;101725.66;5053805;28;20037;-85
2021/05/01 10:43:15;;;;;;;7.07;3.03;;;;;;;23.49;24.14;101733.22;5053031;28;20025;-85
2021/05/01 10:45:55;;;;;;;13.05;3.97;;;;;;;23.51;23.90;101728.91;5052959;28;20365;-85
2021/05/01 10:48:23;;;;;;;7.80;2.80;;;;;;;23.77;24.43;101730.84;5053232;28;20068;-84
2021/05/01 10:51:07;;;;;;;5.35;2.63;;;;;;;23.68;23.80;101724.75;5022236;28;937288;-85
2021/05/01 10:53:35;;;;;;;4.10;1.75;;;;;;;23.77;23.70;101721.69;5054067;28;20043;-84
2021/05/01 10:56:02;;;;;;;38.70;7.25;;;;;;;24.05;22.90;101727.59;5054054;28;20035;-84
2021/05/01 10:58:31;;;;;;;4.85;1.98;;;;;;;24.17;22.38;101729.31;5054024;28;20032;-84
2021/05/01 11:00:56;;;;;;;6.80;2.58;;;;;;;24.01;22.43;101723.16;5054164;28;20032;-85
2021/05/01 11:03:24;;;;;;;4.40;1.63;;;;;;;24.19;22.10;101728.97;5053863;28;20032;-84
2021/05/01 11:05:53;;;;;;;10.65;2.35;;;;;;;24.18;21.58;101733.75;5054036;28;20025;-84
2021/05/01 11:08:34;;;;;;;5.97;1.83;;;;;;;24.43;21.80;101722.06;5053902;28;20025;-86
2021/05/01 11:11:01;;;;;;;3.40;1.90;;;;;;;24.66;21.52;101730.25;5053918;28;20514;-83
2021/05/01 11:13:29;;;;;;;40.53;4.70;;;;;;;24.46;21.40;101727.66;5037383;28;20044;-84
2021/05/01 11:15:59;;;;;;;8.55;2.05;;;;;;;24.65;20.83;101729.44;5053917;28;20021;-85
2021/05/01 11:18:26;;;;;;;7.57;2.70;;;;;;;24.57;20.87;101716.59;5053863;28;20025;-85
2021/05/01 11:20:58;;;;;;;6.13;2.67;;;;;;;24.72;20.48;101726.72;5055046;28;20112;-85
2021/05/01 11:23:30;;;;;;;10.45;2.63;;;;;;;24.78;20.58;101733.53;5055100;28;20029;-82